Broadmeadows, Australia
Current Conditions -  °F | °C
As of 9:00 PM on Friday 31 Oct 2014 (Local Time) from YMEN Reporting Station
Clear Clear  
Wind Chill: 27°   Ceiling: Unl
Heat Index: 27°   Visibility: 6mi
Dew Point:   Wind: 10mph
Humidity: 26%   Direction: 360°N
Pressure: 29.44"   Gusts: NA
Location:  37.68°S, 144.92°E
Report Text: YMEN 311000Z AUTO 36009KT 9999 // NCD 27/06 Q0997
Loading
Personal Weather Stations






























Interactive Weather Map
Tropical Storm Tracking
New forecast layout! Learn more

10-Day Weather Forecast

Advertisements
Track Severe Weather on mobile